หน้าหลัก
METAR-TAF:

METAR-TAF

ท่าอากาศยาน :

Taloyoak, นูนาวุต, แคนาดา

ละติจูด: 69-33N, ลองจิจูด: 093-35W, ความสูง: 28 ม.

การสังเกตสภาพอากาศปัจจุบัน

รายงานได้ทำขึ้นเมื่อ 6 ชั่วโมงและ 5 นาทีที่แล้ว ณ เวลา 02:30 UTC
ลม 16 นอตจากเหนือ/ตะวันตกเฉียงเหนือโดยมีลมกระโชกได้ถึง23 นอต
อุณหภูมิ -26°C
ความชื้น 76%
ความกดอากาศ 1023 hPa
ทัศนวิสัย: 24.1 กม.
ท้องฟ้าแจ่มใส
ผลึกน้ำแข็ง

METAR: CYYH 200230Z CCA 33016G23KT 15SM IC SKC M26/M29 A3021 RMK OCNL DRSN/LAST STFD OBS/NXT 201430Z SLP236

เวลา: 02:35 (08:35 UTC)

การพยากรณ์

รายงานได้ทำขึ้นเมื่อ 8 ชั่วโมงและ 55 นาทีที่แล้ว ณ เวลา 23:40 UTC
การพยากรณ์มีผลตั้งแต่วันที่ 20 ณ เวลา 00 UTC จนถึงวันที่ 20 ณ เวลา 12 UTC
ลม 18 นอตจากเหนือ/ตะวันตกเฉียงเหนือโดยมีลมกระโชกได้ถึง28 นอต
ทัศนวิสัย: 9.7 กม.
มีเมฆน้อยที่ความสูง 2000 ฟุต
หิมะฟุ้งปลิว
ชั่วคราว
ตั้งแต่วันที่ 20 ณ เวลา 00 UTC จนถึงวันที่ 20 ณ เวลา 12 UTC
ทัศนวิสัย: 4.0 กม.
มีเมฆเป็นส่วนมากเว้นเป็นระยะที่ความสูง 2000 ฟุต
ผลึกน้ำแข็ง, หิมะฟุ้งปลิว

TAF: CYYH 192340Z 2000/2012 33018G28KT 6SM BLSN FEW020 TEMPO 2000/2012 2 1/2SM IC BLSN BKN020 RMK NXT FCST BY 200600Z

สังเกตการณ์สภาพอากาศและพยากรณ์อากาศของสนามบินมากกว่า 4000 แห่ง (รายงาน METAR และ TAF).

สถานีที่ดูได้จะแสดงไว้ด้วยจุดสีเหลืองและสีแดงบนแผนที่.

เลื่อนเมาส์ไปเหนือจุดเพื่อดูชื่อสถานี.

แล้วคลิกเพื่อดูสังเกตการณ์และการพยากรณ์สภาพอากาศ.

ในการเปลี่ยนแผนที่: คลิกที่ปุ่มสีเขียวที่มีกากบาทสีดำเพื่อซูมเข้า; ที่ปุ่มสีเขียวที่มีขีดเพื่อซูมออก; หรือที่ลูกศรสีเขียวเพื่อไปยังแผนที่ที่อยู่ติดกัน.


METAR-TAF: